createdAt,value
2022-12-10T00:00:59.266Z,1
2022-12-10T00:02:42.970Z,3
2022-12-10T00:04:26.683Z,10
2022-12-10T00:06:10.375Z,10
2022-12-10T00:07:54.083Z,10
2022-12-10T00:09:37.776Z,1
2022-12-10T00:11:21.477Z,0
2022-12-10T00:13:05.182Z,1
2022-12-10T00:14:48.881Z,1
2022-12-10T00:16:32.593Z,1
2022-12-10T00:18:16.295Z,1
2022-12-10T00:19:59.992Z,1
2022-12-10T00:21:43.697Z,1
2022-12-10T00:23:27.399Z,1
2022-12-10T00:25:11.102Z,1
2022-12-10T00:26:54.805Z,1
2022-12-10T00:28:38.502Z,1
2022-12-10T00:30:22.220Z,2
2022-12-10T00:32:05.921Z,1
2022-12-10T00:33:49.615Z,1
2022-12-10T00:35:33.318Z,1
2022-12-10T00:37:17.023Z,10
2022-12-10T00:39:00.724Z,10
2022-12-10T00:40:44.446Z,10
2022-12-10T00:42:28.122Z,9
2022-12-10T00:44:11.825Z,2
2022-12-10T00:45:55.534Z,1
2022-12-10T00:47:39.236Z,1
2022-12-10T00:49:22.942Z,2
2022-12-10T00:51:06.638Z,1
2022-12-10T00:52:50.364Z,1
2022-12-10T00:54:34.053Z,1
2022-12-10T00:56:17.745Z,1
2022-12-10T00:58:01.451Z,1
2022-12-10T00:59:45.164Z,2
2022-12-10T01:01:28.860Z,1
2022-12-10T01:03:12.563Z,1
2022-12-10T01:04:56.259Z,2
2022-12-10T01:06:39.966Z,1
2022-12-10T01:08:23.670Z,1
2022-12-10T01:10:07.363Z,1
2022-12-10T01:11:51.070Z,1
2022-12-10T01:13:34.776Z,1
2022-12-10T01:15:18.475Z,1
2022-12-10T01:17:02.178Z,1
2022-12-10T01:18:45.880Z,2
2022-12-10T01:20:29.582Z,10
2022-12-10T01:22:13.284Z,10
2022-12-10T01:23:56.981Z,9
2022-12-10T01:25:40.692Z,1
2022-12-10T01:27:24.517Z,1
2022-12-10T01:29:08.097Z,1
2022-12-10T01:30:51.800Z,2
2022-12-10T01:32:35.503Z,2
2022-12-10T01:34:19.206Z,1
2022-12-10T01:36:02.911Z,1
2022-12-10T01:37:46.601Z,1
2022-12-10T01:39:30.312Z,1
2022-12-10T01:41:14.038Z,1
2022-12-10T01:42:57.715Z,1
2022-12-10T01:44:41.413Z,1
2022-12-10T01:46:25.124Z,1
2022-12-10T01:48:08.826Z,1
2022-12-10T01:49:52.544Z,1
2022-12-10T01:51:36.235Z,1
2022-12-10T01:53:19.934Z,1
2022-12-10T01:55:03.632Z,1
2022-12-10T01:56:47.331Z,2
2022-12-10T01:58:31.039Z,1
2022-12-10T02:00:14.747Z,1
2022-12-10T02:01:58.515Z,1
2022-12-10T02:03:42.151Z,1
2022-12-10T02:05:25.847Z,1
2022-12-10T02:07:09.551Z,1
2022-12-10T02:08:53.265Z,1
2022-12-10T02:10:36.955Z,1
2022-12-10T02:12:20.660Z,1
2022-12-10T02:14:04.369Z,1
2022-12-10T02:15:48.059Z,1
2022-12-10T02:17:31.767Z,1
2022-12-10T02:19:15.477Z,2
2022-12-10T02:20:59.174Z,1
2022-12-10T02:22:42.881Z,2
2022-12-10T02:24:26.577Z,1
2022-12-10T02:26:10.309Z,1
2022-12-10T02:27:53.987Z,1
2022-12-10T02:29:37.677Z,1
2022-12-10T02:31:21.509Z,1
2022-12-10T02:33:05.095Z,1
2022-12-10T02:34:48.794Z,1
2022-12-10T02:36:32.495Z,1
2022-12-10T02:38:16.204Z,0
2022-12-10T02:39:59.904Z,1
2022-12-10T02:41:43.612Z,1
2022-12-10T02:43:27.306Z,1
2022-12-10T02:45:11.010Z,2
2022-12-10T02:46:54.716Z,1
2022-12-10T02:48:38.414Z,1
2022-12-10T02:50:22.117Z,1
2022-12-10T02:52:05.827Z,1
2022-12-10T02:53:49.526Z,1
2022-12-10T02:55:33.234Z,1
2022-12-10T02:57:16.939Z,1
2022-12-10T02:59:00.635Z,1
2022-12-10T03:00:44.334Z,1
2022-12-10T03:02:28.032Z,1
2022-12-10T03:04:11.739Z,1
2022-12-10T03:05:55.522Z,1
2022-12-10T03:07:39.146Z,1
2022-12-10T03:09:22.868Z,1
2022-12-10T03:11:06.551Z,1
2022-12-10T03:12:50.250Z,1
2022-12-10T03:14:33.958Z,1
2022-12-10T03:16:17.651Z,2
2022-12-10T03:18:01.353Z,2
2022-12-10T03:19:45.067Z,1
2022-12-10T03:21:28.755Z,1
2022-12-10T03:23:12.463Z,1
2022-12-10T03:24:56.181Z,1
2022-12-10T03:26:39.873Z,2
2022-12-10T03:28:23.573Z,2
2022-12-10T03:30:07.272Z,1
2022-12-10T03:31:50.978Z,1
2022-12-10T03:33:34.689Z,1
2022-12-10T03:35:18.386Z,0
2022-12-10T03:37:02.089Z,2
2022-12-10T03:38:45.789Z,1
2022-12-10T03:40:29.493Z,1
2022-12-10T03:42:13.212Z,1
2022-12-10T03:43:56.892Z,0
2022-12-10T03:45:40.601Z,2
2022-12-10T03:47:24.307Z,1
2022-12-10T03:49:07.998Z,1
2022-12-10T03:50:51.700Z,1
2022-12-10T03:52:35.412Z,2
2022-12-10T03:54:19.107Z,1
2022-12-10T03:56:02.812Z,1
2022-12-10T03:57:46.512Z,1
2022-12-10T03:59:30.220Z,2
2022-12-10T04:01:13.926Z,1
2022-12-10T04:02:57.786Z,1
2022-12-10T04:04:41.331Z,2
2022-12-10T04:06:25.109Z,1
2022-12-10T04:08:08.726Z,1
2022-12-10T04:09:52.428Z,1
2022-12-10T04:11:36.134Z,1
2022-12-10T04:13:19.844Z,2
2022-12-10T04:15:03.544Z,2
2022-12-10T04:16:47.241Z,1
2022-12-10T04:18:30.950Z,1
2022-12-10T04:20:14.646Z,0
2022-12-10T04:21:58.346Z,1
2022-12-10T04:23:42.060Z,0
2022-12-10T04:25:25.759Z,1
2022-12-10T04:27:09.457Z,1
2022-12-10T04:28:53.181Z,1
2022-12-10T04:30:36.872Z,0
2022-12-10T04:32:20.569Z,1
2022-12-10T04:34:04.267Z,1
2022-12-10T04:35:47.954Z,1
2022-12-10T04:37:31.665Z,1
2022-12-10T04:39:15.378Z,1
2022-12-10T04:40:59.073Z,0
2022-12-10T04:42:42.788Z,1
2022-12-10T04:44:26.473Z,0
2022-12-10T04:46:10.183Z,1
2022-12-10T04:47:53.890Z,2
2022-12-10T04:49:37.583Z,1
2022-12-10T04:51:21.276Z,0
2022-12-10T04:53:04.981Z,1
2022-12-10T04:54:48.695Z,0
2022-12-10T04:56:32.402Z,1
2022-12-10T04:58:16.093Z,1
2022-12-10T04:59:59.795Z,1
2022-12-10T05:01:43.510Z,1
2022-12-10T05:03:27.209Z,1
2022-12-10T05:05:10.910Z,1
2022-12-10T05:06:54.614Z,1
2022-12-10T05:08:38.322Z,1
2022-12-10T05:10:22.021Z,1
2022-12-10T05:12:05.717Z,1
2022-12-10T05:13:49.421Z,1
2022-12-10T05:15:33.129Z,2
2022-12-10T05:17:16.824Z,2
2022-12-10T05:19:00.533Z,2
2022-12-10T05:20:44.233Z,1
2022-12-10T05:22:27.944Z,1
2022-12-10T05:24:11.644Z,1
2022-12-10T05:25:55.341Z,1
2022-12-10T05:27:39.046Z,1
2022-12-10T05:29:22.750Z,1
2022-12-10T05:31:06.450Z,0
2022-12-10T05:32:50.157Z,2
2022-12-10T05:34:33.860Z,2
2022-12-10T05:36:17.556Z,1
2022-12-10T05:38:01.275Z,1
2022-12-10T05:39:44.966Z,2
2022-12-10T05:41:28.667Z,2
2022-12-10T05:43:12.372Z,1
2022-12-10T05:44:56.065Z,1
2022-12-10T05:46:39.780Z,2
2022-12-10T05:48:23.485Z,2
2022-12-10T05:50:07.175Z,1
2022-12-10T05:51:50.875Z,1
2022-12-10T05:53:34.577Z,1
2022-12-10T05:55:18.289Z,1
2022-12-10T05:57:02.005Z,1
2022-12-10T05:58:45.685Z,1
2022-12-10T06:00:29.389Z,1
2022-12-10T06:02:13.092Z,1
2022-12-10T06:03:56.795Z,1
2022-12-10T06:05:40.493Z,1
2022-12-10T06:07:24.189Z,1
2022-12-10T06:09:07.901Z,2
2022-12-10T06:10:51.614Z,1
2022-12-10T06:12:35.304Z,1
2022-12-10T06:14:19.015Z,1
2022-12-10T06:16:02.718Z,1
2022-12-10T06:17:46.405Z,2
2022-12-10T06:19:30.121Z,1
2022-12-10T06:21:13.818Z,1
2022-12-10T06:22:57.524Z,1
2022-12-10T06:24:41.228Z,1
2022-12-10T06:26:24.934Z,1
2022-12-10T06:28:08.637Z,1
2022-12-10T06:29:52.345Z,1
2022-12-10T06:31:36.037Z,2
2022-12-10T06:33:19.755Z,1
2022-12-10T06:35:03.452Z,1
2022-12-10T06:36:47.153Z,1
2022-12-10T06:38:30.856Z,1
2022-12-10T06:40:14.563Z,1
2022-12-10T06:41:58.266Z,2
2022-12-10T06:43:41.976Z,3
2022-12-10T06:45:25.677Z,2
2022-12-10T06:47:09.391Z,3
2022-12-10T06:48:53.083Z,3
2022-12-10T06:50:36.790Z,5
2022-12-10T06:52:20.491Z,4
2022-12-10T06:54:04.187Z,6
2022-12-10T06:55:47.924Z,8
2022-12-10T06:57:31.599Z,9
2022-12-10T06:59:15.338Z,10
2022-12-10T07:00:58.997Z,11
2022-12-10T07:02:42.703Z,13
2022-12-10T07:04:26.406Z,16
2022-12-10T07:06:10.116Z,17
2022-12-10T07:07:53.807Z,19
2022-12-10T07:09:37.603Z,19
2022-12-10T07:11:21.219Z,22
2022-12-10T07:13:04.917Z,24
2022-12-10T07:14:48.650Z,28
2022-12-10T07:16:32.365Z,32
2022-12-10T07:18:16.028Z,35
2022-12-10T07:19:59.773Z,40
2022-12-10T07:21:43.435Z,45
2022-12-10T07:23:27.201Z,51
2022-12-10T07:25:10.842Z,57
2022-12-10T07:26:54.540Z,63
2022-12-10T07:28:38.250Z,67
2022-12-10T07:30:21.950Z,70
2022-12-10T07:32:05.646Z,71
2022-12-10T07:33:49.359Z,74
2022-12-10T07:35:33.058Z,77
2022-12-10T07:37:16.761Z,85
2022-12-10T07:39:00.466Z,91
2022-12-10T07:40:44.163Z,100
2022-12-10T07:42:27.865Z,105
2022-12-10T07:44:11.574Z,116
2022-12-10T07:45:55.323Z,127
2022-12-10T07:47:38.983Z,137
2022-12-10T07:49:22.739Z,148
2022-12-10T07:51:06.381Z,157
2022-12-10T07:52:50.136Z,163
2022-12-10T07:54:33.866Z,167
2022-12-10T07:56:17.484Z,164
2022-12-10T07:58:01.201Z,161
2022-12-10T07:59:44.885Z,160
2022-12-10T08:01:28.590Z,164
2022-12-10T08:03:12.325Z,171
2022-12-10T08:04:55.999Z,180
2022-12-10T08:06:39.730Z,189
2022-12-10T08:08:23.403Z,201
2022-12-10T08:10:07.098Z,213
2022-12-10T08:11:50.811Z,230
2022-12-10T08:13:34.509Z,244
2022-12-10T08:15:18.208Z,254
2022-12-10T08:17:01.918Z,262
2022-12-10T08:18:45.666Z,274
2022-12-10T08:20:29.419Z,285
2022-12-10T08:22:13.017Z,295
2022-12-10T08:23:56.729Z,305
2022-12-10T08:25:40.429Z,310
2022-12-10T08:27:24.129Z,316
2022-12-10T08:29:07.834Z,326
2022-12-10T08:30:51.534Z,339
2022-12-10T08:32:35.246Z,350
2022-12-10T08:34:18.946Z,359
2022-12-10T08:36:02.641Z,367
2022-12-10T08:37:46.411Z,372
2022-12-10T08:39:30.082Z,373
2022-12-10T08:41:13.744Z,372
2022-12-10T08:42:57.464Z,374
2022-12-10T08:46:24.855Z,391
2022-12-10T08:48:08.559Z,405
2022-12-10T08:49:52.260Z,432
2022-12-10T08:51:35.988Z,457
2022-12-10T08:53:19.670Z,465
2022-12-10T08:55:03.372Z,458
2022-12-10T08:56:47.078Z,460
2022-12-10T08:58:30.777Z,479
2022-12-10T09:00:14.484Z,485
2022-12-10T09:01:58.176Z,474
2022-12-10T09:03:41.908Z,462
2022-12-10T09:05:25.591Z,445
2022-12-10T09:07:09.297Z,427
2022-12-10T09:08:52.996Z,415
2022-12-10T09:10:36.700Z,413
2022-12-10T09:12:20.404Z,413
2022-12-10T09:14:04.109Z,411
2022-12-10T09:15:47.818Z,405
2022-12-10T09:17:31.517Z,415
2022-12-10T09:19:15.219Z,437
2022-12-10T09:20:58.923Z,446
2022-12-10T09:22:42.622Z,422
2022-12-10T09:24:26.331Z,391
2022-12-10T09:26:10.029Z,393
2022-12-10T09:27:53.727Z,412
2022-12-10T09:29:37.434Z,430
2022-12-10T09:31:21.144Z,441
2022-12-10T09:33:04.832Z,437
2022-12-10T09:34:48.551Z,425
2022-12-10T09:36:32.234Z,424
2022-12-10T09:38:16.031Z,423
2022-12-10T09:39:59.646Z,416
2022-12-10T09:41:43.349Z,408
2022-12-10T09:43:27.070Z,405
2022-12-10T09:45:10.762Z,411
2022-12-10T09:46:54.455Z,425
2022-12-10T09:48:38.158Z,433
2022-12-10T09:50:21.864Z,426
2022-12-10T09:53:49.276Z,412
2022-12-10T09:55:32.960Z,417
2022-12-10T09:57:16.676Z,412
2022-12-10T09:59:00.379Z,403
2022-12-10T10:00:44.072Z,401
2022-12-10T10:02:27.776Z,404
2022-12-10T10:04:11.487Z,417
2022-12-10T10:05:55.184Z,438
2022-12-10T10:07:38.892Z,460
2022-12-10T10:09:22.587Z,472
2022-12-10T10:11:06.297Z,473
2022-12-10T10:12:50.006Z,486
2022-12-10T10:14:33.694Z,517
2022-12-10T10:16:17.399Z,534
2022-12-10T10:18:01.106Z,523
2022-12-10T10:19:44.803Z,505
2022-12-10T10:21:28.515Z,496
2022-12-10T10:23:12.231Z,491
2022-12-10T10:24:55.912Z,493
2022-12-10T10:26:39.676Z,509
2022-12-10T10:28:23.314Z,524
2022-12-10T10:30:07.016Z,543
2022-12-10T10:31:50.729Z,542
2022-12-10T10:33:34.421Z,526
2022-12-10T10:35:18.128Z,518
2022-12-10T10:37:01.836Z,528
2022-12-10T10:38:45.534Z,537
2022-12-10T10:40:29.244Z,547
2022-12-10T10:42:12.939Z,559
2022-12-10T10:43:56.644Z,582
2022-12-10T10:45:40.347Z,614
2022-12-10T10:47:24.069Z,652
2022-12-10T10:49:07.749Z,690
2022-12-10T10:50:51.462Z,714
2022-12-10T10:52:35.162Z,700
2022-12-10T10:54:18.895Z,624
2022-12-10T10:56:02.571Z,559
2022-12-10T10:57:46.278Z,499
2022-12-10T10:59:29.979Z,480
2022-12-10T11:01:13.669Z,479
2022-12-10T11:02:57.370Z,487
2022-12-10T11:04:41.078Z,521
2022-12-10T11:06:24.854Z,535
2022-12-10T11:08:08.481Z,527
2022-12-10T11:09:52.187Z,533
2022-12-10T11:11:35.884Z,537
2022-12-10T11:13:19.585Z,538
2022-12-10T11:15:03.288Z,533
2022-12-10T11:16:46.997Z,507
2022-12-10T11:18:30.701Z,499
2022-12-10T11:20:14.397Z,516
2022-12-10T11:21:58.101Z,514
2022-12-10T11:23:41.812Z,534
2022-12-10T11:25:25.531Z,527
2022-12-10T11:27:09.214Z,523
2022-12-10T11:28:52.917Z,502
2022-12-10T11:30:36.620Z,486
2022-12-10T11:32:20.342Z,497
2022-12-10T11:34:04.026Z,522
2022-12-10T11:35:47.724Z,519
2022-12-10T11:37:31.434Z,499
2022-12-10T11:39:15.127Z,484
2022-12-10T11:40:58.840Z,487
2022-12-10T11:42:42.551Z,500
2022-12-10T11:44:26.239Z,502
2022-12-10T11:46:09.933Z,495
2022-12-10T11:47:53.644Z,509
2022-12-10T11:49:37.352Z,533
2022-12-10T11:51:21.070Z,528
2022-12-10T11:53:04.765Z,523
2022-12-10T11:54:48.457Z,509
2022-12-10T11:56:32.163Z,527
2022-12-10T11:58:15.857Z,511
2022-12-10T11:59:59.565Z,522
2022-12-10T12:01:43.272Z,536
2022-12-10T12:03:26.966Z,550
2022-12-10T12:05:10.675Z,556
2022-12-10T12:06:54.376Z,543
2022-12-10T12:08:38.083Z,544
2022-12-10T12:10:21.865Z,535
2022-12-10T12:12:05.498Z,508
2022-12-10T12:13:49.185Z,483
2022-12-10T12:15:32.880Z,469
2022-12-10T12:17:16.594Z,464
2022-12-10T12:19:00.297Z,474
2022-12-10T12:20:43.998Z,472
2022-12-10T12:22:27.701Z,461
2022-12-10T12:24:11.409Z,462
2022-12-10T12:25:55.106Z,476
2022-12-10T12:27:38.809Z,504
2022-12-10T12:29:22.564Z,495
2022-12-10T12:31:06.211Z,494
2022-12-10T12:32:49.914Z,517
2022-12-10T12:34:33.665Z,537
2022-12-10T12:36:17.323Z,557
2022-12-10T12:38:01.025Z,554
2022-12-10T12:39:44.745Z,576
2022-12-10T12:41:28.431Z,584
2022-12-10T12:43:12.139Z,586
2022-12-10T12:44:55.837Z,581
2022-12-10T12:46:39.543Z,567
2022-12-10T12:48:23.250Z,564
2022-12-10T12:50:06.948Z,584
2022-12-10T12:51:50.654Z,562
2022-12-10T12:53:34.363Z,538
2022-12-10T12:55:18.057Z,518
2022-12-10T12:57:01.763Z,484
2022-12-10T12:58:45.464Z,453
2022-12-10T13:00:29.167Z,401
2022-12-10T13:02:12.878Z,374
2022-12-10T13:03:56.568Z,377
2022-12-10T13:05:40.278Z,385
2022-12-10T13:07:23.977Z,396
2022-12-10T13:09:07.673Z,412
2022-12-10T13:10:51.382Z,419
2022-12-10T13:12:35.089Z,394
2022-12-10T13:14:18.798Z,357
2022-12-10T13:16:02.498Z,332
2022-12-10T13:17:46.186Z,313
2022-12-10T13:19:29.888Z,289
2022-12-10T13:21:13.590Z,263
2022-12-10T13:22:57.302Z,242
2022-12-10T13:24:41.077Z,233
2022-12-10T13:26:24.748Z,227
2022-12-10T13:28:08.465Z,234
2022-12-10T13:29:52.110Z,248
2022-12-10T13:31:35.807Z,259
2022-12-10T13:33:19.517Z,276
2022-12-10T13:35:03.243Z,294
2022-12-10T13:36:46.927Z,320
2022-12-10T13:38:30.655Z,346
2022-12-10T13:40:14.339Z,356
2022-12-10T13:41:58.033Z,367
2022-12-10T13:43:41.746Z,366
2022-12-10T13:45:25.450Z,347
2022-12-10T13:47:09.148Z,319
2022-12-10T13:48:52.850Z,283
2022-12-10T13:50:36.573Z,252
2022-12-10T13:52:20.338Z,219
2022-12-10T13:54:03.953Z,191
2022-12-10T13:55:47.648Z,165
2022-12-10T13:57:31.352Z,151
2022-12-10T13:59:15.086Z,139
2022-12-10T14:00:58.758Z,129
2022-12-10T14:02:42.466Z,120
2022-12-10T14:04:26.159Z,114
2022-12-10T14:06:09.866Z,107
2022-12-10T14:07:53.575Z,98
2022-12-10T14:09:37.307Z,92
2022-12-10T14:11:20.984Z,90
2022-12-10T14:13:04.695Z,91
2022-12-10T14:14:48.384Z,99
2022-12-10T14:16:32.088Z,104
2022-12-10T14:18:15.844Z,118
2022-12-10T14:19:59.481Z,133
2022-12-10T14:21:43.200Z,150
2022-12-10T14:23:26.898Z,160
2022-12-10T14:25:10.602Z,160
2022-12-10T14:26:54.303Z,159
2022-12-10T14:28:38.017Z,162
2022-12-10T14:30:21.705Z,167
2022-12-10T14:32:05.407Z,169
2022-12-10T14:33:49.101Z,164
2022-12-10T14:35:32.807Z,160
2022-12-10T14:37:16.508Z,160
2022-12-10T14:39:00.230Z,157
2022-12-10T14:40:43.925Z,154
2022-12-10T14:42:27.617Z,152
2022-12-10T14:44:11.327Z,145
2022-12-10T14:45:55.089Z,138
2022-12-10T14:47:38.727Z,133
2022-12-10T14:49:22.431Z,128
2022-12-10T14:51:06.138Z,121
2022-12-10T14:52:49.838Z,116
2022-12-10T14:54:33.543Z,109
2022-12-10T14:56:17.254Z,103
2022-12-10T14:58:00.950Z,97
2022-12-10T14:59:44.651Z,87
2022-12-10T15:01:28.347Z,80
2022-12-10T15:03:12.055Z,75
2022-12-10T15:04:55.754Z,68
2022-12-10T15:06:39.454Z,61
2022-12-10T15:08:23.170Z,56
2022-12-10T15:10:06.862Z,53
2022-12-10T15:11:50.645Z,50
2022-12-10T15:13:34.270Z,46
2022-12-10T15:15:17.996Z,44
2022-12-10T15:17:01.671Z,42
2022-12-10T15:18:45.374Z,38
2022-12-10T15:20:29.090Z,36
2022-12-10T15:22:12.792Z,32
2022-12-10T15:23:56.542Z,30
2022-12-10T15:25:40.187Z,27
2022-12-10T15:27:23.897Z,24
2022-12-10T15:29:07.623Z,23
2022-12-10T15:30:51.305Z,20
2022-12-10T15:32:34.994Z,18
2022-12-10T15:34:18.692Z,16
2022-12-10T15:36:02.402Z,14
2022-12-10T15:37:46.112Z,13
2022-12-10T15:39:29.870Z,11
2022-12-10T15:41:13.517Z,9
2022-12-10T15:42:57.218Z,9
2022-12-10T15:44:40.927Z,6
2022-12-10T15:46:24.625Z,6
2022-12-10T15:48:08.331Z,5
2022-12-10T15:49:52.048Z,4
2022-12-10T15:51:35.734Z,4
2022-12-10T15:53:19.445Z,4
2022-12-10T15:55:03.141Z,3
2022-12-10T15:56:46.841Z,2
2022-12-10T15:58:30.539Z,2
2022-12-10T16:00:14.287Z,3
2022-12-10T16:01:57.943Z,3
2022-12-10T16:03:41.653Z,2
2022-12-10T16:05:25.348Z,3
2022-12-10T16:07:09.062Z,2
2022-12-10T16:08:52.779Z,2
2022-12-10T16:10:36.455Z,2
2022-12-10T16:12:20.163Z,1
2022-12-10T16:14:03.864Z,2
2022-12-10T16:15:47.570Z,1
2022-12-10T16:17:31.312Z,2
2022-12-10T16:19:14.984Z,1
2022-12-10T16:20:58.742Z,1
2022-12-10T16:22:42.401Z,2
2022-12-10T16:24:26.094Z,2
2022-12-10T16:26:09.788Z,1
2022-12-10T16:27:53.489Z,3
2022-12-10T16:29:37.293Z,2
2022-12-10T16:31:20.900Z,2
2022-12-10T16:33:04.599Z,1
2022-12-10T16:34:48.300Z,1
2022-12-10T16:36:32.015Z,2
2022-12-10T16:38:15.706Z,2
2022-12-10T16:39:59.412Z,1
2022-12-10T16:41:43.174Z,2
2022-12-10T16:43:26.943Z,1
2022-12-10T16:45:10.526Z,1
2022-12-10T16:46:54.251Z,2
2022-12-10T16:48:38.020Z,1
2022-12-10T16:50:21.639Z,1
2022-12-10T16:52:05.324Z,2
2022-12-10T16:53:49.032Z,1
2022-12-10T16:55:32.734Z,2
2022-12-10T16:57:16.446Z,2
2022-12-10T16:59:00.162Z,2
2022-12-10T17:00:43.847Z,2
2022-12-10T17:02:27.550Z,1
2022-12-10T17:04:11.292Z,2
2022-12-10T17:05:54.997Z,2
2022-12-10T17:07:38.659Z,2
2022-12-10T17:09:22.352Z,2
2022-12-10T17:11:06.060Z,2
2022-12-10T17:12:49.758Z,2
2022-12-10T17:14:33.474Z,2
2022-12-10T17:16:17.170Z,1
2022-12-10T17:18:00.867Z,2
2022-12-10T17:19:44.587Z,1
2022-12-10T17:21:28.276Z,1
2022-12-10T17:23:11.990Z,2
2022-12-10T17:24:55.682Z,2
2022-12-10T17:26:39.394Z,2
2022-12-10T17:28:23.087Z,2
2022-12-10T17:30:06.789Z,1
2022-12-10T17:31:50.505Z,2
2022-12-10T17:33:34.197Z,2
2022-12-10T17:35:17.915Z,1
2022-12-10T17:37:01.600Z,1
2022-12-10T17:38:45.341Z,2
2022-12-10T17:40:29.015Z,1
2022-12-10T17:42:12.703Z,1
2022-12-10T17:43:56.411Z,2
2022-12-10T17:45:40.119Z,2
2022-12-10T17:47:23.819Z,2
2022-12-10T17:49:07.518Z,1
2022-12-10T17:50:51.225Z,1
2022-12-10T17:52:34.975Z,1
2022-12-10T17:54:18.620Z,1
2022-12-10T17:56:02.324Z,1
2022-12-10T17:57:46.028Z,2
2022-12-10T17:59:29.734Z,2
2022-12-10T18:01:13.435Z,2
2022-12-10T18:02:57.139Z,1
2022-12-10T18:04:40.849Z,1
2022-12-10T18:06:24.549Z,1
2022-12-10T18:08:08.263Z,1
2022-12-10T18:09:51.950Z,1
2022-12-10T18:11:35.655Z,1
2022-12-10T18:13:19.358Z,1
2022-12-10T18:15:03.053Z,1
2022-12-10T18:16:46.758Z,2
2022-12-10T18:18:30.521Z,1
2022-12-10T18:20:14.163Z,1
2022-12-10T18:21:57.867Z,1
2022-12-10T18:23:41.564Z,2
2022-12-10T18:25:25.273Z,1
2022-12-10T18:27:08.980Z,1
2022-12-10T18:28:52.705Z,2
2022-12-10T18:30:36.376Z,1
2022-12-10T18:32:20.084Z,2
2022-12-10T18:34:03.787Z,1
2022-12-10T18:35:47.514Z,1
2022-12-10T18:37:31.195Z,1
2022-12-10T18:39:14.894Z,0
2022-12-10T18:40:58.604Z,0
2022-12-10T18:42:42.317Z,1
2022-12-10T18:44:26.016Z,1
2022-12-10T18:46:09.711Z,2
2022-12-10T18:47:53.409Z,0
2022-12-10T18:49:37.120Z,1
2022-12-10T18:51:20.827Z,1
2022-12-10T18:53:04.523Z,1
2022-12-10T18:54:48.275Z,1
2022-12-10T18:56:31.924Z,2
2022-12-10T18:58:15.628Z,1
2022-12-10T18:59:59.421Z,1
2022-12-10T19:01:43.029Z,1
2022-12-10T19:03:26.741Z,1
2022-12-10T19:05:10.521Z,1
2022-12-10T19:06:54.138Z,1
2022-12-10T19:08:37.844Z,2
2022-12-10T19:10:21.541Z,1
2022-12-10T19:12:05.250Z,1
2022-12-10T19:13:48.952Z,1
2022-12-10T19:15:32.645Z,1
2022-12-10T19:17:16.356Z,1
2022-12-10T19:19:00.072Z,1
2022-12-10T19:20:43.759Z,1
2022-12-10T19:22:27.514Z,1
2022-12-10T19:24:11.306Z,1
2022-12-10T19:25:54.875Z,1
2022-12-10T19:27:38.581Z,1
2022-12-10T19:29:22.274Z,1
2022-12-10T19:31:06.005Z,1
2022-12-10T19:32:49.739Z,1
2022-12-10T19:34:33.384Z,1
2022-12-10T19:36:17.083Z,1
2022-12-10T19:38:00.836Z,1
2022-12-10T19:39:44.492Z,1
2022-12-10T19:41:28.199Z,1
2022-12-10T19:43:11.895Z,1
2022-12-10T19:44:55.590Z,2
2022-12-10T19:46:39.312Z,1
2022-12-10T19:48:23.053Z,1
2022-12-10T19:50:06.725Z,2
2022-12-10T19:51:50.473Z,1
2022-12-10T19:53:34.112Z,1
2022-12-10T19:55:17.810Z,2
2022-12-10T19:57:01.522Z,1
2022-12-10T19:58:45.225Z,1
2022-12-10T20:00:28.931Z,1
2022-12-10T20:02:12.618Z,1
2022-12-10T20:03:56.329Z,1
2022-12-10T20:05:40.032Z,1
2022-12-10T20:07:23.733Z,1
2022-12-10T20:09:07.436Z,1
2022-12-10T20:10:51.180Z,2
2022-12-10T20:12:34.842Z,0
2022-12-10T20:14:18.569Z,1
2022-12-10T20:16:02.246Z,1
2022-12-10T20:17:45.946Z,1
2022-12-10T20:19:29.730Z,0
2022-12-10T20:21:13.354Z,1
2022-12-10T20:22:57.063Z,1
2022-12-10T20:24:40.760Z,1
2022-12-10T20:26:24.457Z,1
2022-12-10T20:28:08.173Z,0
2022-12-10T20:29:51.923Z,1
2022-12-10T20:31:35.568Z,1
2022-12-10T20:33:19.292Z,1
2022-12-10T20:35:02.983Z,1
2022-12-10T20:36:46.692Z,1
2022-12-10T20:38:30.378Z,0
2022-12-10T20:40:14.075Z,1
2022-12-10T20:41:57.780Z,1
2022-12-10T20:43:41.490Z,1
2022-12-10T20:45:25.189Z,1
2022-12-10T20:47:08.891Z,2
2022-12-10T20:48:52.606Z,1
2022-12-10T20:50:36.288Z,2
2022-12-10T20:52:19.999Z,1
2022-12-10T20:54:03.701Z,1
2022-12-10T20:55:47.405Z,1
2022-12-10T20:57:31.115Z,2
2022-12-10T20:59:14.815Z,2
2022-12-10T21:00:58.597Z,1
2022-12-10T21:02:42.214Z,1
2022-12-10T21:04:25.913Z,1
2022-12-10T21:06:09.624Z,1
2022-12-10T21:07:53.324Z,1
2022-12-10T21:09:37.037Z,1
2022-12-10T21:11:20.726Z,1
2022-12-10T21:13:04.430Z,1
2022-12-10T21:14:48.143Z,2
2022-12-10T21:16:31.873Z,1
2022-12-10T21:18:15.597Z,1
2022-12-10T21:19:59.243Z,1
2022-12-10T21:21:42.934Z,1
2022-12-10T21:23:26.778Z,1
2022-12-10T21:25:10.360Z,1
2022-12-10T21:26:54.057Z,1
2022-12-10T21:28:37.816Z,1
2022-12-10T21:30:21.478Z,2
2022-12-10T21:32:05.168Z,1
2022-12-10T21:33:48.893Z,2
2022-12-10T21:35:32.670Z,1
2022-12-10T21:37:16.317Z,1
2022-12-10T21:38:59.973Z,1
2022-12-10T21:40:43.732Z,1
2022-12-10T21:42:27.437Z,1
2022-12-10T21:44:11.087Z,1
2022-12-10T21:45:54.919Z,1
2022-12-10T21:47:38.500Z,0
2022-12-10T21:49:22.229Z,1
2022-12-10T21:51:05.893Z,1
2022-12-10T21:52:49.631Z,1
2022-12-10T21:54:33.293Z,1
2022-12-10T21:56:17.013Z,1
2022-12-10T21:58:00.697Z,2
2022-12-10T21:59:44.471Z,2
2022-12-10T22:01:28.104Z,1
2022-12-10T22:03:11.863Z,1
2022-12-10T22:04:55.580Z,2
2022-12-10T22:06:39.220Z,1
2022-12-10T22:08:22.904Z,1
2022-12-10T22:10:06.619Z,1
2022-12-10T22:11:50.324Z,1
2022-12-10T22:13:34.021Z,1
2022-12-10T22:15:17.797Z,1
2022-12-10T22:17:01.431Z,0
2022-12-10T22:18:45.131Z,0
2022-12-10T22:20:28.835Z,1
2022-12-10T22:22:12.606Z,1
2022-12-10T22:23:56.309Z,1
2022-12-10T22:25:39.937Z,1
2022-12-10T22:27:23.646Z,1
2022-12-10T22:29:07.341Z,1
2022-12-10T22:30:51.087Z,0
2022-12-10T22:32:34.747Z,1
2022-12-10T22:34:18.462Z,1
2022-12-10T22:36:02.169Z,1
2022-12-10T22:37:45.860Z,1
2022-12-10T22:39:29.561Z,1
2022-12-10T22:41:13.276Z,1
2022-12-10T22:42:56.965Z,1
2022-12-10T22:44:40.671Z,0
2022-12-10T22:46:24.372Z,1
2022-12-10T22:48:08.075Z,2
2022-12-10T22:49:51.776Z,1
2022-12-10T22:51:35.477Z,1
2022-12-10T22:53:19.204Z,1
2022-12-10T22:55:02.875Z,1
2022-12-10T22:56:46.589Z,1
2022-12-10T22:58:30.285Z,0
2022-12-10T23:00:13.998Z,1
2022-12-10T23:01:57.699Z,1
2022-12-10T23:03:41.403Z,2
2022-12-10T23:05:25.104Z,1
2022-12-10T23:07:08.808Z,0
2022-12-10T23:08:52.504Z,1
2022-12-10T23:10:36.210Z,2
2022-12-10T23:12:19.908Z,1
2022-12-10T23:14:03.624Z,1
2022-12-10T23:15:47.327Z,1
2022-12-10T23:17:31.017Z,1
2022-12-10T23:19:14.725Z,1
2022-12-10T23:20:58.436Z,1
2022-12-10T23:22:42.190Z,1
2022-12-10T23:24:25.835Z,1
2022-12-10T23:26:09.532Z,0
2022-12-10T23:27:53.239Z,0
2022-12-10T23:29:36.943Z,1
2022-12-10T23:31:20.645Z,1
2022-12-10T23:33:04.348Z,1
2022-12-10T23:34:48.054Z,1
2022-12-10T23:36:31.769Z,2
2022-12-10T23:38:15.450Z,1
2022-12-10T23:39:59.159Z,2
2022-12-10T23:41:42.861Z,1
2022-12-10T23:43:26.562Z,1
2022-12-10T23:45:10.267Z,1
2022-12-10T23:46:54.001Z,2
2022-12-10T23:48:37.669Z,1
2022-12-10T23:50:21.362Z,1
2022-12-10T23:52:05.077Z,2
2022-12-10T23:53:48.780Z,1
2022-12-10T23:55:32.479Z,1
2022-12-10T23:57:16.181Z,10
2022-12-10T23:58:59.881Z,1
